Accueil en_GB de_DE fr_FR  

25.03.17 23:30 UTC   Mobile
Tarifs
FAQ (Foire aux questions)

 
TopMeteo
Nom d'utilisateur Mot de passe  



La recherche de l'itinéraire n'est disponible qu'aux utilisateurs avec un abonnement actif.

Nous vous affichons les endroits standard. Pour mieux comprendre les rapports de temps de METAR cf. Wikipedia.


EDAH Heringsdorf TAF/S
15:50Z
251400Z 2515/2524 31007KT CAVOK
31009KT 260V360 9999 FEW025 09/03 Q1024
EDDG Münster Osnabrück Flughafen TAF/L

22:50Z
251700Z 2518/2618 03009KT CAVOK
BECMG 2518/2520 03004KT ; TEMPO 2604/2608 3000 BR BKN007
03005KT CAVOK 05/03 Q1026 NOSIG
KBUF Greater Buffalo International TAF/L






22:54Z
AMD 252109Z 2521/2618 07012KT P6SM OVC012
FM252300 08012KT P6SM BKN012 OVC035
FM260700 09012KT P6SM VCSH OVC012
FM261100 10010G17KT P6SM VCSH OVC025
FM261300 12009KT P6SM OVC035
FM261100 10010G17KT P6SM VCSH OVC025
FM261300 12009KT P6SM OVC035
06011KT 10SM BKN010 OVC032 02/00 A3033
KPIT Greater Pittsburgh International TAF/L




22:51Z
AMD 252059Z 2521/2624 VRB03KT P6SM BKN070
FM261200 12007KT P6SM OVC050
FM261600 15009KT P6SM VCSH OVC050
FM261300 12007KT P6SM OVC050
FM261600 15009KT P6SM VCSH OVC050
09003KT 10SM FEW060 SCT140 OVC250 21/11 A3013
KAXH Houston Southwest 22:55Z AUTO 10SM CLR 26/13 A2992 RMK AO2 T02600131
LIMC Milano/Malpensa TAF/L

22:50Z
251700Z 2518/2624 VRB05KT 9999 SCT080
TEMPO 2518/2522 3000 TSRA ; TEMPO 2522/2606 RA
28005KT 260V330 5000 -RA BR SCT005 BKN040 12/12 Q1018 RERA NOSIG
LOWK Klagenfurt-Flughafen TAF/L

22:50Z
251715Z 2518/2618 09005KT CAVOK TX13/2518Z TN04/2605Z
TEMPO 2522/2612 9999 -SHRA BKN035
AUTO 29003KT 9999 NCD 07/04 Q1020
FYWB Walvis Bay 23:00Z AUTO 36002KT //// // ////// 15/12 Q1016
FBFT Francistown TAF/S

19:00Z
251200Z 2515/2524 15009KT 9999 BKN030 FEW040CB PROB30
TEMPO 2515/2524 TSRA
07007KT 050V110 9999 FEW025 23/18 Q1019

Data source: ftp://tgftp.nws.noaa.gov/SL.us008001
"Data is provided as a public service by NOAA's National Weather Service (NWS) and is considered public information and may be distributed or copied."
 
 
CGV
Mentions légales
Qui sommes nous?
Simulation numérique: 18 UTC - Prévision: Me 29.03.17 17:00